Time;durP1;ratioP1;P1;durP2;ratioP2;P2;SDS_P1;SDS_P2;PMS_P1;PMS_P2;Temp;Humidity;BMP_temperature;BMP_pressure;BME280_temperature;BME280_humidity;BME280_pressure;Samples;Min_cycle;Max_cycle;Signal;HPM_P1;HPM_P2
2022/07/14 00:04:15;;;;;;;66.47;27.83;;;17.80;99.10;;;;;;10030656;29;20041;-84
2022/07/14 00:09:15;;;;;;;5.75;3.00;;;17.80;99.90;;;;;;10049459;29;20132;-83
2022/07/14 00:14:16;;;;;;;3.75;2.55;;;17.80;99.90;;;;;;10045891;29;20041;-85
2022/07/14 00:19:17;;;;;;;6.07;3.15;;;17.90;99.90;;;;;;10049438;29;20057;-84
2022/07/14 00:24:18;;;;;;;4.15;3.03;;;18.10;99.90;;;;;;10049042;29;20064;-83
2022/07/14 00:29:19;;;;;;;6.57;2.90;;;18.10;99.90;;;;;;10033080;29;20068;-83
2022/07/14 00:34:19;;;;;;;4.13;3.03;;;18.10;99.90;;;;;;10031817;29;20133;-86
2022/07/14 00:39:20;;;;;;;5.00;3.00;;;18.20;99.90;;;;;;10049276;29;20444;-83
2022/07/14 00:44:20;;;;;;;5.85;3.15;;;18.30;99.90;;;;;;10042746;29;20041;-83
2022/07/14 00:49:34;;;;;;;6.05;3.38;;;18.40;99.90;;;;;;10046890;29;20052;-85
2022/07/14 00:54:35;;;;;;;4.32;2.75;;;18.50;99.70;;;;;;10047710;29;20034;-83
2022/07/14 00:59:36;;;;;;;7.20;3.38;;;18.70;99.50;;;;;;10046066;29;20033;-83
2022/07/14 01:04:37;;;;;;;6.72;3.17;;;18.70;99.60;;;;;;10032618;29;20413;-84
2022/07/14 01:09:38;;;;;;;4.45;2.78;;;18.70;99.20;;;;;;10044529;29;20038;-82
2022/07/14 01:14:41;;;;;;;4.18;2.83;;;18.80;99.20;;;;;;10046092;29;20039;-83
2022/07/14 01:19:41;;;;;;;5.07;2.63;;;18.80;99.30;;;;;;10046118;29;20157;-83
2022/07/14 01:24:42;;;;;;;5.35;3.15;;;18.90;98.70;;;;;;10047743;29;20033;-87
2022/07/14 01:29:42;;;;;;;4.55;3.03;;;18.90;98.30;;;;;;10047691;29;20132;-83
2022/07/14 01:34:43;;;;;;;5.50;3.17;;;19.00;97.90;;;;;;10044054;29;20037;-83
2022/07/14 01:39:45;;;;;;;5.50;3.30;;;19.10;98.10;;;;;;10045490;29;20045;-83
2022/07/14 01:44:45;;;;;;;6.32;3.35;;;19.00;99.30;;;;;;10047813;29;20042;-84
2022/07/14 01:49:46;;;;;;;4.97;3.15;;;18.90;98.50;;;;;;10025155;29;20109;-87
2022/07/14 01:54:46;;;;;;;3.63;2.53;;;18.80;98.40;;;;;;10045882;29;20482;-83
2022/07/14 01:59:47;;;;;;;3.75;2.75;;;18.80;97.50;;;;;;10045132;29;20037;-84
2022/07/14 02:04:47;;;;;;;4.13;2.88;;;18.80;97.40;;;;;;10046529;29;20447;-83
2022/07/14 02:15:08;;;;;;;4.78;2.88;;;18.70;98.30;;;;;;10053123;29;20050;-83
2022/07/14 02:20:09;;;;;;;3.47;2.80;;;18.60;98.00;;;;;;10047700;29;20136;-83
2022/07/14 02:25:12;;;;;;;5.57;3.00;;;18.70;97.80;;;;;;10053338;29;20045;-85
2022/07/14 02:30:13;;;;;;;5.63;2.72;;;18.60;98.00;;;;;;10053501;29;20041;-84
2022/07/14 02:35:14;;;;;;;4.93;2.95;;;18.60;98.20;;;;;;10051335;29;20026;-84
2022/07/14 02:40:14;;;;;;;4.97;3.20;;;18.60;98.80;;;;;;10049661;29;20041;-88
2022/07/14 02:45:15;;;;;;;5.05;2.90;;;18.60;98.90;;;;;;10051329;29;20049;-83
2022/07/14 02:50:16;;;;;;;5.00;3.13;;;18.60;98.90;;;;;;10051652;29;20049;-88
2022/07/14 02:55:16;;;;;;;4.45;3.35;;;18.60;98.30;;;;;;10066641;23;20116;-84
2022/07/14 03:00:17;;;;;;;4.65;3.05;;;18.60;98.90;;;;;;10051466;29;20033;-84
2022/07/14 03:05:18;;;;;;;3.92;2.60;;;18.60;98.70;;;;;;10052284;29;20522;-86
2022/07/14 03:10:18;;;;;;;3.78;2.63;;;18.70;98.40;;;;;;10044736;29;20038;-87
2022/07/14 03:15:19;;;;;;;5.38;2.63;;;18.80;98.50;;;;;;10046293;29;20079;-88
2022/07/14 03:20:20;;;;;;;6.43;3.00;;;18.80;98.20;;;;;;10033282;29;20141;-84
2022/07/14 03:25:21;;;;;;;5.13;2.78;;;18.80;99.00;;;;;;10048170;29;20338;-84
2022/07/14 03:30:22;;;;;;;6.03;2.83;;;18.90;97.80;;;;;;10049190;29;20064;-85
2022/07/14 03:35:22;;;;;;;4.22;2.83;;;19.00;97.80;;;;;;10047727;29;20030;-83
2022/07/14 03:40:23;;;;;;;3.78;2.47;;;19.10;98.00;;;;;;10050500;29;20085;-84
2022/07/14 03:45:23;;;;;;;3.45;2.47;;;19.20;97.30;;;;;;10032348;29;20037;-86
2022/07/14 03:50:24;;;;;;;4.93;2.30;;;19.10;97.20;;;;;;10050656;29;20048;-81
2022/07/14 03:55:25;;;;;;;6.43;2.45;;;19.10;97.20;;;;;;10045341;29;20061;-83
2022/07/14 04:00:26;;;;;;;3.22;2.65;;;19.20;96.80;;;;;;10038030;29;20057;-84
2022/07/14 04:05:27;;;;;;;5.05;2.30;;;19.30;96.50;;;;;;10044888;29;20033;-88
2022/07/14 04:10:27;;;;;;;4.78;2.63;;;19.50;96.20;;;;;;10054628;29;20158;-83
2022/07/14 04:15:30;;;;;;;6.15;2.05;;;19.50;95.80;;;;;;10016598;29;20505;-82
2022/07/14 04:20:31;;;;;;;4.30;2.22;;;19.60;95.70;;;;;;10064462;29;20037;-83
2022/07/14 04:25:31;;;;;;;5.75;3.00;;;19.70;95.50;;;;;;10038054;29;20038;-84
2022/07/14 04:30:32;;;;;;;6.97;3.38;;;19.80;96.20;;;;;;10040924;29;20100;-85
2022/07/14 04:35:32;;;;;;;3.35;2.35;;;19.90;95.80;;;;;;10048281;29;20029;-87
2022/07/14 04:40:33;;;;;;;6.07;2.60;;;20.00;95.70;;;;;;10046851;29;20034;-85
2022/07/14 04:45:33;;;;;;;4.40;2.80;;;20.20;95.70;;;;;;10046032;29;20446;-87
2022/07/14 04:55:53;;;;;;;7.53;3.40;;;20.70;94.30;;;;;;10042143;29;20069;-84
2022/07/14 05:01:35;;;;;;;5.15;2.78;;;20.70;94.30;;;;;;10033166;29;20033;-86
2022/07/14 05:06:36;;;;;;;6.20;3.13;;;20.70;93.90;;;;;;10028639;29;20144;-86
2022/07/14 05:11:36;;;;;;;11.25;3.97;;;20.70;93.80;;;;;;10035037;29;20056;-86
2022/07/14 05:17:02;;;;;;;6.10;3.25;;;20.70;93.80;;;;;;10030359;29;20285;-86
2022/07/14 05:22:22;;;;;;;;;;;20.80;94.20;;;;;;10033731;29;20669;-85
2022/07/14 05:27:23;;;;;;;6.60;3.30;;;20.90;93.90;;;;;;10045697;29;19954;-88
2022/07/14 05:33:14;;;;;;;6.88;3.42;;;21.10;93.80;;;;;;10034956;29;20117;-88
2022/07/14 05:38:14;;;;;;;4.85;3.65;;;21.40;93.50;;;;;;10033673;29;20053;-84
2022/07/14 05:43:15;;;;;;;7.13;3.30;;;21.50;93.50;;;;;;10033372;29;20104;-86
2022/07/14 05:48:15;;;;;;;9.93;3.20;;;21.60;92.70;;;;;;10039174;29;20060;-86
2022/07/14 05:53:27;;;;;;;7.80;3.53;;;21.70;92.60;;;;;;10046387;29;20069;-89
2022/07/14 05:58:29;;;;;;;4.20;2.90;;;21.90;92.30;;;;;;10036523;29;20029;-87
2022/07/14 06:03:30;;;;;;;3.35;2.55;;;22.10;91.40;;;;;;10043558;29;20034;-87
2022/07/14 06:08:31;;;;;;;5.00;2.70;;;22.30;91.10;;;;;;10015819;29;20038;-85
2022/07/14 06:13:32;;;;;;;5.30;2.53;;;22.40;91.00;;;;;;10033991;29;20034;-84
2022/07/14 06:18:33;;;;;;;5.97;2.70;;;22.50;90.10;;;;;;10039125;29;20042;-85
2022/07/14 06:24:19;;;;;;;4.43;2.60;;;22.60;90.00;;;;;;10030223;29;20057;-86
2022/07/14 06:29:19;;;;;;;;;;;22.70;88.50;;;;;;10037724;29;20045;-85
2022/07/14 06:34:42;;;;;;;5.03;2.42;;;22.90;86.60;;;;;;10043997;29;19965;-84
2022/07/14 06:39:42;;;;;;;6.03;2.58;;;23.00;87.50;;;;;;10021590;29;20045;-86
2022/07/14 06:44:43;;;;;;;5.22;2.55;;;23.10;86.10;;;;;;10023510;29;20483;-82
2022/07/14 06:49:44;;;;;;;4.88;2.15;;;23.30;86.50;;;;;;10036708;29;20045;-83
2022/07/14 06:54:44;;;;;;;5.45;2.63;;;23.50;86.60;;;;;;10035774;29;20138;-85
2022/07/14 06:59:46;;;;;;;3.47;2.33;;;23.90;86.90;;;;;;10051551;29;20166;-84
2022/07/14 07:06:43;;;;;;;4.10;2.65;;;24.80;84.10;;;;;;10035237;29;20167;-89
2022/07/14 07:10:08;;;;;;;3.28;2.33;;;26.10;80.60;;;;;;10029784;29;20049;-87
2022/07/14 07:15:09;;;;;;;4.38;2.78;;;27.30;77.00;;;;;;10034215;29;20486;-84
2022/07/14 07:20:10;;;;;;;4.68;2.33;;;27.50;75.40;;;;;;10031476;29;20610;-85
2022/07/14 07:25:12;;;;;;;5.18;2.70;;;27.90;73.90;;;;;;10036143;29;20086;-85
2022/07/14 07:30:12;;;;;;;4.10;2.97;;;28.40;73.10;;;;;;10044601;29;20136;-85
2022/07/14 07:35:13;;;;;;;2.88;2.60;;;28.50;72.00;;;;;;10049497;29;20030;-87
2022/07/14 07:40:14;;;;;;;2.53;2.30;;;28.90;71.70;;;;;;10048354;29;20078;-86
2022/07/14 07:45:14;;;;;;;3.85;2.42;;;29.30;67.90;;;;;;10045820;29;20660;-85
2022/07/14 07:50:15;;;;;;;6.15;2.65;;;28.60;67.40;;;;;;10042376;29;20086;-86
2022/07/14 07:55:16;;;;;;;5.45;2.60;;;28.00;68.80;;;;;;10047456;29;20113;-85
2022/07/14 08:00:16;;;;;;;3.58;2.58;;;27.90;69.20;;;;;;10045605;29;20828;-87
2022/07/14 08:05:18;;;;;;;3.13;2.47;;;27.60;69.10;;;;;;10049571;29;20479;-86
2022/07/14 08:10:19;;;;;;;3.65;2.78;;;27.60;70.80;;;;;;10047180;29;20128;-85
2022/07/14 08:15:20;;;;;;;7.85;2.97;;;27.70;70.10;;;;;;10047360;29;20394;-86
2022/07/14 08:20:21;;;;;;;6.40;2.50;;;27.70;70.30;;;;;;10050721;29;20064;-85
2022/07/14 08:25:22;;;;;;;3.08;2.10;;;27.80;69.80;;;;;;10050087;29;20116;-87
2022/07/14 08:30:23;;;;;;;5.05;2.20;;;27.70;71.50;;;;;;10030774;29;20071;-87
2022/07/14 08:35:25;;;;;;;2.55;1.92;;;27.50;66.90;;;;;;10050154;29;20033;-85
2022/07/14 08:40:26;;;;;;;2.20;2.00;;;27.70;69.40;;;;;;10045619;29;20041;-84
2022/07/14 08:45:27;;;;;;;5.90;1.90;;;27.90;69.80;;;;;;10046257;29;20029;-85
2022/07/14 08:50:27;;;;;;;2.95;1.60;;;28.10;65.40;;;;;;10046808;29;20054;-85
2022/07/14 08:55:28;;;;;;;2.20;2.00;;;28.10;65.60;;;;;;10049658;29;20064;-86
2022/07/14 09:00:29;;;;;;;2.38;1.80;;;28.10;66.00;;;;;;10049539;29;20022;-86
2022/07/14 09:05:30;;;;;;;5.72;2.15;;;28.10;65.90;;;;;;10047508;29;20033;-87
2022/07/14 09:10:31;;;;;;;2.40;2.05;;;28.20;67.10;;;;;;10048237;29;20026;-83
2022/07/14 09:15:47;;;;;;;2.25;2.00;;;28.40;67.80;;;;;;10039571;29;20037;-84
2022/07/14 09:20:48;;;;;;;2.75;2.25;;;28.40;69.70;;;;;;10046156;29;20033;-86
2022/07/14 09:25:49;;;;;;;3.53;2.40;;;28.60;68.20;;;;;;10046676;29;20411;-86
2022/07/14 09:30:51;;;;;;;3.92;2.65;;;28.60;71.00;;;;;;10047934;29;20040;-85
2022/07/14 09:35:51;;;;;;;3.38;2.20;;;28.80;66.80;;;;;;10027713;29;20033;-87
2022/07/14 09:41:08;;;;;;;3.30;2.42;;;28.90;69.00;;;;;;10045289;29;20439;-86
2022/07/14 09:46:09;;;;;;;4.35;2.75;;;29.00;66.70;;;;;;10044867;29;20178;-84
2022/07/14 09:51:15;;;;;;;3.30;2.50;;;29.40;68.70;;;;;;10030783;29;20128;-84
2022/07/14 09:56:16;;;;;;;4.38;3.28;;;29.60;65.20;;;;;;10046437;29;20446;-89
2022/07/14 10:01:18;;;;;;;3.75;2.80;;;29.60;67.90;;;;;;10043160;29;20038;-86
2022/07/14 10:06:21;;;;;;;2.75;2.47;;;29.80;68.20;;;;;;10032506;29;20113;-86
2022/07/14 10:11:22;;;;;;;3.47;2.63;;;29.70;66.20;;;;;;10045270;29;20033;-86
2022/07/14 10:16:22;;;;;;;3.40;2.67;;;29.50;69.10;;;;;;10042502;29;20026;-85
2022/07/14 10:21:25;;;;;;;11.50;6.72;;;29.70;65.80;;;;;;10046899;29;20359;-83
2022/07/14 10:26:25;;;;;;;6.22;3.78;;;29.80;67.90;;;;;;10047544;29;20022;-85
2022/07/14 10:31:38;;;;;;;6.90;3.63;;;29.80;68.00;;;;;;10042378;29;20041;-84
2022/07/14 10:36:58;;;;;;;5.75;2.80;;;30.00;64.80;;;;;;10054683;29;20033;-87
2022/07/14 10:42:19;;;;;;;3.40;2.45;;;30.20;67.80;;;;;;10047711;29;20170;-85
2022/07/14 10:47:23;;;;;;;4.03;2.72;;;30.40;67.90;;;;;;10051147;29;20446;-85
2022/07/14 10:52:29;;;;;;;2.80;2.30;;;30.40;66.00;;;;;;10046961;29;20053;-83
2022/07/14 10:57:30;;;;;;;3.38;2.45;;;29.90;67.50;;;;;;10051928;29;20026;-85
2022/07/14 11:02:32;;;;;;;4.13;2.30;;;29.60;68.90;;;;;;10046035;29;20382;-87
2022/07/14 11:07:43;;;;;;;3.25;2.90;;;29.80;68.20;;;;;;10053370;29;20062;-85
2022/07/14 11:13:02;;;;;;;3.35;2.60;;;29.90;68.40;;;;;;10051077;29;20026;-83
2022/07/14 11:18:41;;;;;;;3.25;2.90;;;30.00;66.80;;;;;;10051007;29;20078;-86
2022/07/14 11:23:48;;;;;;;3.03;2.72;;;30.10;67.10;;;;;;10025873;29;20045;-85
2022/07/14 11:28:50;;;;;;;4.60;2.55;;;30.00;69.30;;;;;;10047646;29;20044;-85
2022/07/14 11:39:16;;;;;;;3.28;2.83;;;29.40;68.00;;;;;;10051925;29;20045;-86
2022/07/14 11:44:35;;;;;;;6.17;2.47;;;29.40;68.40;;;;;;10047713;29;20041;-85
2022/07/14 11:49:36;;;;;;;4.88;2.90;;;28.80;69.20;;;;;;10035196;29;20735;-86
2022/07/14 11:54:38;;;;;;;3.20;2.50;;;28.80;69.30;;;;;;10051994;29;20057;-84
2022/07/14 11:59:42;;;;;;;2.38;2.15;;;29.10;68.80;;;;;;10051388;29;20105;-85
2022/07/14 12:04:57;;;;;;;5.80;3.10;;;30.20;66.90;;;;;;10051204;29;20033;-85
2022/07/14 12:09:58;;;;;;;;;;;31.00;65.10;;;;;;10051271;29;20566;-84
2022/07/14 12:14:59;;;;;;;3.70;2.53;;;31.50;67.30;;;;;;10050316;29;20347;-86
2022/07/14 12:20:00;;;;;;;4.60;2.92;;;31.60;62.60;;;;;;10049377;29;20045;-87
2022/07/14 12:25:00;;;;;;;5.35;2.83;;;31.00;64.10;;;;;;10049799;29;20097;-86
2022/07/14 12:30:01;;;;;;;4.82;2.70;;;30.40;65.40;;;;;;10044298;29;20049;-85
2022/07/14 12:35:02;;;;;;;4.80;3.28;;;29.80;65.50;;;;;;10048872;29;20038;-85
2022/07/14 12:40:04;;;;;;;4.70;3.20;;;29.20;67.20;;;;;;10044125;29;20441;-88
2022/07/14 12:45:07;;;;;;;4.55;2.80;;;29.00;69.70;;;;;;10046379;29;20116;-88
2022/07/14 12:50:22;;;;;;;3.40;3.10;;;28.90;67.20;;;;;;10049926;29;20322;-86
2022/07/14 12:55:44;;;;;;;5.50;3.40;;;28.60;69.80;;;;;;10044414;29;20084;-86
2022/07/14 13:00:44;;;;;;;7.15;3.22;;;28.70;68.80;;;;;;10049602;29;20383;-88
2022/07/14 13:05:47;;;;;;;3.38;2.92;;;28.80;69.50;;;;;;10035152;29;20041;-86
2022/07/14 13:10:59;;;;;;;4.07;2.80;;;28.90;69.60;;;;;;10048390;29;20574;-88
2022/07/14 13:16:20;;;;;;;4.40;3.00;;;28.70;70.20;;;;;;10032399;29;20366;-87
2022/07/14 13:21:20;;;;;;;4.70;3.10;;;28.40;68.90;;;;;;10048062;29;20037;-85
2022/07/14 13:26:21;;;;;;;4.03;2.92;;;28.40;69.50;;;;;;10048683;29;20041;-86
2022/07/14 13:31:24;;;;;;;3.00;2.70;;;28.20;68.40;;;;;;10029324;29;20037;-85
2022/07/14 13:36:25;;;;;;;5.38;2.95;;;28.10;70.20;;;;;;10047928;29;20510;-86
2022/07/14 13:41:26;;;;;;;3.05;2.60;;;28.00;69.00;;;;;;10047202;29;20026;-84
2022/07/14 13:46:27;;;;;;;3.72;3.10;;;28.00;71.30;;;;;;10048010;29;20029;-88
2022/07/14 13:56:48;;;;;;;6.50;2.75;;;28.30;70.50;;;;;;10047009;29;20128;-85
2022/07/14 14:01:49;;;;;;;3.65;2.83;;;28.20;69.50;;;;;;10048159;29;20021;-83
2022/07/14 14:06:50;;;;;;;6.35;3.08;;;27.90;70.90;;;;;;10047878;29;20482;-86
2022/07/14 14:11:51;;;;;;;4.10;2.75;;;27.70;70.40;;;;;;10038114;29;20120;-86
2022/07/14 14:16:53;;;;;;;5.10;3.25;;;27.40;71.40;;;;;;10055396;29;20097;-88
2022/07/14 14:21:54;;;;;;;4.45;2.88;;;27.20;71.10;;;;;;10038486;29;20038;-85
2022/07/14 14:26:55;;;;;;;4.05;2.97;;;27.10;72.10;;;;;;10038245;29;20041;-84
2022/07/14 14:31:58;;;;;;;7.07;3.50;;;27.10;73.30;;;;;;10054847;29;20498;-87
2022/07/14 14:36:59;;;;;;;4.45;2.88;;;27.20;74.80;;;;;;10054508;29;20045;-85
2022/07/14 14:41:59;;;;;;;5.15;2.63;;;27.20;71.70;;;;;;10054023;29;20037;-84
2022/07/14 14:47:00;;;;;;;4.55;3.20;;;26.90;72.30;;;;;;10046445;29;20475;-84
2022/07/14 14:52:00;;;;;;;5.40;2.97;;;26.70;73.00;;;;;;10046915;29;20557;-85
2022/07/14 14:57:01;;;;;;;5.18;3.35;;;26.30;73.40;;;;;;10053509;29;20505;-84
2022/07/14 15:02:02;;;;;;;5.68;3.05;;;26.10;74.90;;;;;;10053281;29;20463;-87
2022/07/14 15:07:02;;;;;;;6.00;3.17;;;26.10;75.40;;;;;;10051413;29;20029;-86
2022/07/14 15:12:03;;;;;;;5.00;3.67;;;26.20;76.30;;;;;;10052940;29;20048;-86
2022/07/14 15:17:04;;;;;;;4.55;3.55;;;26.10;76.60;;;;;;10051810;29;20372;-87
2022/07/14 15:22:06;;;;;;;4.15;2.97;;;26.10;76.80;;;;;;10034753;29;20543;-84
2022/07/14 15:27:09;;;;;;;4.00;3.33;;;25.90;77.60;;;;;;10051199;29;20577;-87
2022/07/14 15:32:09;;;;;;;14.18;4.50;;;25.90;78.10;;;;;;10040350;29;20574;-86
2022/07/14 15:37:11;;;;;;;4.72;3.38;;;26.00;80.10;;;;;;10051525;29;20049;-86
2022/07/14 15:42:11;;;;;;;4.72;3.53;;;26.10;80.40;;;;;;10050925;29;20049;-85
2022/07/14 15:47:12;;;;;;;7.00;3.90;;;26.40;78.90;;;;;;10042504;29;20045;-85
2022/07/14 15:52:13;;;;;;;4.82;3.60;;;26.50;79.60;;;;;;10030419;29;20061;-86
2022/07/14 15:57:14;;;;;;;4.20;3.00;;;26.70;78.00;;;;;;10050699;29;20490;-86
2022/07/14 16:02:14;;;;;;;4.20;3.00;;;26.50;75.80;;;;;;10049523;29;20033;-84
2022/07/14 16:07:15;;;;;;;4.03;3.05;;;26.40;75.70;;;;;;10048840;29;20029;-85
2022/07/14 16:12:16;;;;;;;3.95;2.80;;;26.40;76.30;;;;;;10049633;29;20410;-83
2022/07/14 16:17:16;;;;;;;7.47;3.60;;;26.10;75.90;;;;;;10050519;29;20038;-85
2022/07/14 16:22:17;;;;;;;13.45;8.93;;;25.80;76.30;;;;;;10050025;29;20128;-86
2022/07/14 16:27:17;;;;;;;8.73;5.68;;;25.50;78.50;;;;;;10050468;29;20045;-88
2022/07/14 16:32:18;;;;;;;28.52;21.75;;;25.50;81.70;;;;;;10049123;29;20045;-85
2022/07/14 16:37:18;;;;;;;116.50;93.38;;;25.40;81.10;;;;;;10048172;29;20053;-88
2022/07/14 16:42:19;;;;;;;19.70;12.38;;;25.20;82.60;;;;;;10050027;29;20426;-88
2022/07/14 16:47:19;;;;;;;15.63;5.20;;;25.20;83.20;;;;;;10045523;29;20038;-86
2022/07/14 16:52:20;;;;;;;5.53;3.80;;;25.20;83.10;;;;;;10047971;29;20146;-88
2022/07/14 16:57:21;;;;;;;5.25;4.00;;;25.30;83.00;;;;;;10048883;29;20025;-85
2022/07/14 17:02:21;;;;;;;4.85;3.80;;;25.50;83.30;;;;;;10049942;29;20034;-87
2022/07/14 17:07:22;;;;;;;9.07;4.00;;;25.30;82.20;;;;;;10026557;29;20033;-88
2022/07/14 17:12:22;;;;;;;5.75;3.60;;;25.00;83.60;;;;;;10048401;29;20138;-86
2022/07/14 17:17:25;;;;;;;4.70;3.58;;;24.90;83.20;;;;;;10047147;29;20036;-87
2022/07/14 17:22:26;;;;;;;6.85;4.30;;;24.80;84.50;;;;;;10047477;29;20057;-86
2022/07/14 17:27:26;;;;;;;5.82;4.15;;;24.70;86.80;;;;;;10047476;29;20033;-87
2022/07/14 17:32:27;;;;;;;7.95;5.40;;;24.50;85.10;;;;;;10031490;29;20067;-87
2022/07/14 17:37:28;;;;;;;6.50;5.15;;;24.30;90.10;;;;;;10046588;29;20033;-83
2022/07/14 17:42:28;;;;;;;9.10;5.38;;;24.00;91.10;;;;;;10047221;29;20025;-84
2022/07/14 17:47:29;;;;;;;5.95;4.28;;;23.70;90.60;;;;;;10046146;29;20042;-85
2022/07/14 17:52:29;;;;;;;5.65;4.28;;;23.40;91.00;;;;;;10046479;29;20062;-87
2022/07/14 17:57:31;;;;;;;6.90;5.20;;;23.20;91.70;;;;;;10047497;29;20575;-87
2022/07/14 18:02:32;;;;;;;9.20;5.50;;;23.00;91.70;;;;;;10046984;29;20435;-86
2022/07/14 18:07:32;;;;;;;7.90;6.00;;;22.80;92.10;;;;;;10046700;29;20037;-85
2022/07/14 18:12:34;;;;;;;8.30;5.53;;;22.60;93.30;;;;;;10046098;29;20042;-85
2022/07/14 18:17:34;;;;;;;10.25;6.50;;;22.40;94.30;;;;;;10045562;29;20026;-83
2022/07/14 18:22:37;;;;;;;8.32;6.10;;;22.20;95.10;;;;;;10025302;29;20044;-83
2022/07/14 18:27:38;;;;;;;9.18;6.70;;;22.10;98.20;;;;;;10046347;29;20041;-81
2022/07/14 18:32:38;;;;;;;11.48;7.25;;;22.00;99.90;;;;;;10047242;29;20076;-84
2022/07/14 18:37:41;;;;;;;11.25;7.90;;;21.90;99.90;;;;;;10047477;29;20470;-85
2022/07/14 18:42:41;;;;;;;11.75;8.10;;;21.70;99.90;;;;;;10046327;29;20140;-84
2022/07/14 18:47:42;;;;;;;10.57;8.32;;;21.50;99.90;;;;;;10045028;29;20048;-83
2022/07/14 18:52:43;;;;;;;12.45;8.05;;;21.40;99.90;;;;;;10048829;29;20380;-83
2022/07/14 18:57:44;;;;;;;11.38;7.72;;;21.40;99.90;;;;;;10037180;29;20022;-83
2022/07/14 19:02:44;;;;;;;13.52;7.50;;;21.20;99.90;;;;;;10052511;29;20148;-84
2022/07/14 19:07:45;;;;;;;11.55;7.28;;;21.20;99.90;;;;;;10053651;29;20046;-84
2022/07/14 19:12:46;;;;;;;14.18;7.53;;;21.20;99.90;;;;;;10035369;29;20038;-85
2022/07/14 19:17:47;;;;;;;10.63;6.65;;;21.20;99.90;;;;;;10052477;29;20037;-84
2022/07/14 19:22:47;;;;;;;10.85;6.68;;;21.20;99.90;;;;;;10035398;29;20033;-86
2022/07/14 19:27:48;;;;;;;9.48;8.02;;;21.20;99.90;;;;;;10052321;29;20049;-84
2022/07/14 19:32:50;;;;;;;113.95;70.30;;;21.00;99.90;;;;;;10051192;29;20037;-85
2022/07/14 19:37:51;;;;;;;45.67;32.80;;;20.40;99.90;;;;;;10045488;29;20037;-85
2022/07/14 19:42:52;;;;;;;549.75;106.55;;;19.20;99.90;;;;;;10028062;29;20140;-84
2022/07/14 19:47:53;;;;;;;27.70;21.35;;;18.50;99.90;;;;;;10029525;29;20040;-85
2022/07/14 19:52:54;;;;;;;45.88;24.83;;;18.10;99.90;;;;;;10027626;29;20086;-86
2022/07/14 19:57:54;;;;;;;38.85;22.77;;;17.90;99.90;;;;;;10020503;29;20038;-87
2022/07/14 20:02:56;;;;;;;32.97;23.15;;;17.80;99.90;;;;;;10034358;29;20041;-85
2022/07/14 20:07:57;;;;;;;29.85;18.05;;;17.60;99.90;;;;;;10036011;29;20034;-85
2022/07/14 20:13:32;;;;;;;23.50;18.95;;;17.50;99.90;;;;;;10037212;29;20050;-83
2022/07/14 20:18:33;;;;;;;19.67;14.02;;;17.30;99.90;;;;;;10012849;29;20041;-86
2022/07/14 20:23:34;;;;;;;24.05;16.17;;;17.20;99.90;;;;;;10046631;29;20477;-88
2022/07/14 20:34:27;;;;;;;48.92;28.00;;;17.10;99.90;;;;;;10037216;29;20506;-85
2022/07/14 20:39:28;;;;;;;147.02;38.33;;;17.20;99.90;;;;;;10025288;29;20041;-86
2022/07/14 20:44:29;;;;;;;100.18;33.72;;;17.20;99.90;;;;;;10026181;29;20033;-85
2022/07/14 20:49:29;;;;;;;302.55;37.13;;;17.30;99.90;;;;;;10028568;29;20040;-86
2022/07/14 20:54:30;;;;;;;31.92;22.38;;;17.30;99.90;;;;;;10014434;29;20069;-85
2022/07/14 20:59:42;;;;;;;49.70;27.25;;;17.40;99.90;;;;;;10019966;29;20032;-84
2022/07/14 21:04:42;;;;;;;57.30;27.60;;;17.40;99.90;;;;;;10043903;29;20467;-84
2022/07/14 21:09:46;;;;;;;39.30;23.52;;;17.40;99.90;;;;;;10047639;29;20132;-83
2022/07/14 21:14:47;;;;;;;49.28;27.50;;;17.50;99.90;;;;;;10047954;29;20034;-84
2022/07/14 21:19:47;;;;;;;35.25;23.80;;;17.40;99.90;;;;;;10043635;29;20045;-84
2022/07/14 21:24:48;;;;;;;46.20;28.02;;;17.40;99.90;;;;;;10045949;29;20044;-84
2022/07/14 21:29:49;;;;;;;30.75;22.75;;;17.40;99.90;;;;;;10047109;29;20041;-83
2022/07/14 21:34:49;;;;;;;33.10;24.88;;;17.40;99.90;;;;;;10025987;29;20132;-86
2022/07/14 21:39:50;;;;;;;47.22;29.90;;;17.30;99.90;;;;;;10031122;29;20097;-84
2022/07/14 21:44:50;;;;;;;33.17;24.45;;;17.30;99.90;;;;;;10029505;29;20520;-87
2022/07/14 21:49:52;;;;;;;38.40;25.90;;;17.30;99.90;;;;;;10025866;29;20086;-85
2022/07/14 21:54:52;;;;;;;48.85;32.90;;;17.30;99.90;;;;;;10030816;29;20065;-83
2022/07/14 21:59:53;;;;;;;52.75;33.92;;;17.30;99.90;;;;;;10028004;29;20026;-84
2022/07/14 22:04:53;;;;;;;46.65;31.75;;;17.40;99.90;;;;;;10028050;29;20040;-85
2022/07/14 22:09:57;;;;;;;53.97;34.47;;;17.40;99.90;;;;;;10030001;29;20435;-84
2022/07/14 22:14:58;;;;;;;66.03;37.28;;;17.40;99.90;;;;;;10026082;29;20041;-83
2022/07/14 22:20:00;;;;;;;80.35;46.10;;;17.40;99.90;;;;;;10030184;29;20045;-83
2022/07/14 22:25:03;;;;;;;96.05;50.22;;;17.40;99.90;;;;;;10043871;29;20569;-82
2022/07/14 22:30:05;;;;;;;67.40;42.15;;;17.40;99.90;;;;;;10035607;29;20073;-83
2022/07/14 22:35:07;;;;;;;66.10;39.17;;;17.40;99.90;;;;;;10034922;29;20124;-83
2022/07/14 22:40:08;;;;;;;89.90;45.80;;;17.40;99.90;;;;;;10052267;29;20033;-86
2022/07/14 22:45:09;;;;;;;66.68;41.22;;;17.40;99.90;;;;;;10037391;29;20041;-86
2022/07/14 22:50:16;;;;;;;64.40;38.13;;;17.40;99.90;;;;;;10036032;29;20041;-82
2022/07/14 22:55:17;;;;;;;64.68;41.67;;;17.30;99.90;;;;;;10048211;29;20057;-84
2022/07/14 23:00:18;;;;;;;72.30;45.25;;;17.30;99.90;;;;;;10051690;29;20033;-83
2022/07/14 23:05:19;;;;;;;70.13;42.63;;;17.30;99.90;;;;;;10043020;29;20045;-86
2022/07/14 23:10:19;;;;;;;63.20;37.65;;;17.30;99.90;;;;;;10046944;29;20715;-84
2022/07/14 23:15:34;;;;;;;59.15;36.97;;;17.30;99.90;;;;;;10095670;24;20064;-84
2022/07/14 23:20:43;;;;;;;57.67;37.88;;;17.20;99.90;;;;;;10063302;29;20104;-84
2022/07/14 23:25:44;;;;;;;58.20;35.15;;;17.20;99.90;;;;;;10086599;29;20040;-86
2022/07/14 23:30:45;;;;;;;57.65;38.70;;;17.10;99.90;;;;;;10089285;29;20391;-86
2022/07/14 23:35:45;;;;;;;71.50;41.45;;;17.20;99.90;;;;;;10087648;29;20490;-86
2022/07/14 23:40:46;;;;;;;44.70;31.52;;;17.20;99.90;;;;;;10073357;29;20033;-85
2022/07/14 23:45:46;;;;;;;69.55;43.38;;;17.20;99.90;;;;;;10091074;29;20055;-84
2022/07/14 23:50:47;;;;;;;97.18;52.78;;;17.20;99.90;;;;;;10088666;29;20501;-85
2022/07/14 23:55:48;;;;;;;77.10;45.22;;;17.20;99.90;;;;;;10090117;29;20531;-85
